Etowah, TN

5:25 AM EST on December 28, 2014 (GMT -0500)
K4KNX | Change Station
CLOSE
Current Station
Personal Weather Station
Location: Athens, TN
Elevation: 835 ft
Nearby Weather Stations

Elev 835 ft 35.33 °N, 84.60 °W | Updated 1 second ago

Overcast
Overcast
53.8 °F
Feels Like 53.8 °F
N
0.0
Wind Variable Wind from SW
Gusts 2.2 mph

Today
High -- | Low -- °F
--% Chance of Precip.
Yesterday
High -- | Low -- °F
Precip. -- in
7:45 AM 5:33 PM
Waxing Crescent, 46% visible
Pressure 30.08 in
Visibility 10.0 miles
Clouds Overcast 600 ft
Dew Point 54 °F
Humidity 99%
Rainfall 0.14 in
Snow Depth Not available.
UV 0 out of 12
Pollen .30 out of 12
Air Quality Not available.
Flu Activity Not available.
METAR KMMI 281015Z AUTO 24003KT 10SM OVC006 11/11 A3008 RMK

More Conditions Fewer Conditions

Pressure 30.08 in
Visibility 10.0 miles
Clouds Overcast 600 ft
Dew Point 54 °F
Humidity 99%
Rainfall 0.14 in
Snow Depth Not available.
UV 0 out of 12
Pollen .30 out of 12
Air Quality Not available.
Flu Activity Not available.
METAR KMMI 281015Z AUTO 24003KT 10SM OVC006 11/11 A3008 RMK

More Conditions Fewer Conditions

10-Day Weather Forecast

Almanac

Astronomy

Dec. 28, 2014 Rise Set
Actual Time
Civil Twilight
Nautical Twilight
Astronomical Twilight
Moon
Length of Visible Light
Length of Day
Tomorrow will be .
, % of the Moon is Illuminated

Today's Extremes

State Highs State Lows

Community

WunderPhotos

Upload Photos

1,781,213 photos uploaded!

WunderBlogs® & News

Nearby

Air Quality

  Air Quality AQ Index Pollutant
Not available.

Snow Depth

Station Depth Elevation

Earthquake Activity

City Distance Mag. Time & Date
Minimum magnitude displayed is 2.5.

Coastal Water Temperatures

Place Temperature

Nearby Weather Stations